Time;durP1;ratioP1;P1;durP2;ratioP2;P2;SDS_P1;SDS_P2;PMS_P1;PMS_P2;Temp;Humidity;BMP_temperature;BMP_pressure;BME280_temperature;BME280_humidity;BME280_pressure;Samples;Min_cycle;Max_cycle;Signal;HPM_P1;HPM_P2
2023/04/28 00:00:40;;;;;;;;;23.20;21.80;;;;;9.52;47.16;99223.88;6263209;27;96889;-62
2023/04/28 00:03:44;;;;;;;;;21.20;19.60;;;;;9.53;47.16;99230.88;6261446;27;98310;-62
2023/04/28 00:06:48;;;;;;;;;21.00;20.25;;;;;9.56;47.32;99233.19;6262978;27;96393;-62
2023/04/28 00:09:51;;;;;;;;;21.00;20.00;;;;;9.53;47.30;99233.59;6262903;27;96253;-62
2023/04/28 00:12:56;;;;;;;;;23.40;22.00;;;;;9.58;47.49;99247.25;6257509;27;96355;-63
2023/04/28 00:16:00;;;;;;;;;33.50;31.00;;;;;9.69;48.25;99250.38;6236307;28;97342;-63
2023/04/28 00:19:03;;;;;;;;;40.40;34.60;;;;;9.84;47.66;99246.44;6237724;27;96367;-63
2023/04/28 00:22:07;;;;;;;;;38.40;32.00;;;;;9.78;47.69;99239.19;6237521;27;96246;-63
2023/04/28 00:25:10;;;;;;;;;38.80;34.00;;;;;9.78;47.71;99246.44;6237414;27;96428;-62
2023/04/28 00:28:15;;;;;;;;;40.40;33.40;;;;;9.71;48.02;99248.31;6237410;28;96297;-62
2023/04/28 00:31:36;;;;;;;;;28.00;28.00;;;;;9.56;48.24;99245.81;6237670;27;96277;-62
2023/04/28 00:34:39;;;;;;;;;29.40;28.00;;;;;9.50;47.74;99241.25;6235553;28;98399;-62
2023/04/28 00:37:43;;;;;;;;;29.20;29.00;;;;;9.18;48.34;99207.91;6237608;27;96302;-62
2023/04/28 00:40:46;;;;;;;;;31.20;29.20;;;;;9.23;48.47;99240.41;6250806;27;96569;-62
2023/04/28 00:43:51;;;;;;;;;36.20;32.00;;;;;9.09;48.75;99234.16;6262222;27;96496;-62
2023/04/28 00:46:54;;;;;;;;;34.00;29.60;;;;;8.96;49.10;99236.81;6260254;27;96731;-62
2023/04/28 00:49:58;;;;;;;;;32.75;31.00;;;;;8.88;49.22;99231.63;6262791;27;96208;-63
2023/04/28 00:53:02;;;;;;;;;35.40;32.00;;;;;8.84;49.17;99240.31;6260989;27;96236;-62
2023/04/28 00:56:07;;;;;;;;;34.60;31.60;;;;;8.89;49.22;99232.47;6260527;27;96898;-63
2023/04/28 00:59:12;;;;;;;;;35.50;32.00;;;;;8.93;49.19;99233.72;6262052;27;96386;-63
2023/04/28 01:02:17;;;;;;;;;35.25;32.00;;;;;8.89;49.41;99233.28;6261727;27;96242;-62
2023/04/28 01:05:21;;;;;;;;;33.80;30.40;;;;;8.93;49.20;99233.72;6234730;28;98492;-62
2023/04/28 01:08:28;;;;;;;;;30.60;29.60;;;;;8.94;49.45;99235.38;6236750;28;96250;-62
2023/04/28 01:11:31;;;;;;;;;32.80;30.80;;;;;8.95;49.64;99229.78;6235735;28;96228;-62
2023/04/28 01:14:42;;;;;;;;;36.60;32.00;;;;;9.02;49.11;99232.50;6237234;28;96295;-63
2023/04/28 01:17:47;;;;;;;;;33.40;29.60;;;;;9.05;48.79;99227.53;6237000;28;96584;-63
2023/04/28 01:20:50;;;;;;;;;33.25;30.00;;;;;9.14;48.46;99225.47;6218832;27;97921;-63
2023/04/28 01:23:55;;;;;;;;;33.50;30.50;;;;;9.18;48.51;99234.81;6255022;27;96348;-62
2023/04/28 01:26:58;;;;;;;;;34.00;30.00;;;;;9.19;48.53;99232.94;6261786;27;96338;-63
2023/04/28 01:30:03;;;;;;;;;33.25;30.25;;;;;9.25;48.33;99222.19;6247118;27;98360;-63
2023/04/28 01:33:07;;;;;;;;;34.75;31.50;;;;;9.33;48.15;99230.06;6239095;28;96345;-62
2023/04/28 01:36:10;;;;;;;;;34.25;30.50;;;;;9.37;47.73;99236.69;6239793;28;96588;-62
2023/04/28 01:39:15;;;;;;;;;31.40;30.00;;;;;9.35;48.11;99235.22;6252838;27;96834;-63
2023/04/28 01:42:18;;;;;;;;;34.00;31.00;;;;;9.32;48.39;99236.47;6256566;27;96201;-62
2023/04/28 01:45:22;;;;;;;;;34.80;31.00;;;;;9.31;48.57;99239.38;6265181;27;96371;-62
2023/04/28 01:48:25;;;;;;;;;35.00;30.60;;;;;9.31;48.63;99239.38;6264587;27;98239;-63
2023/04/28 01:51:28;;;;;;;;;35.00;32.00;;;;;9.36;48.66;99240.41;6265654;27;96833;-63
2023/04/28 01:54:34;;;;;;;;;34.80;30.00;;;;;9.41;48.65;99237.94;6264682;27;96254;-63
2023/04/28 01:57:37;;;;;;;;;35.40;32.00;;;;;9.48;48.27;99243.34;6240122;27;96671;-63
2023/04/28 02:00:40;;;;;;;;;28.20;27.20;;;;;9.47;48.31;99239.81;6239437;28;96532;-63
2023/04/28 02:03:44;;;;;;;;;33.20;30.20;;;;;9.47;48.63;99230.91;6238241;28;96619;-63
2023/04/28 02:06:48;;;;;;;;;33.40;30.00;;;;;9.49;48.22;99232.34;6239022;28;96362;-63
2023/04/28 02:09:53;;;;;;;;;36.00;32.00;;;;;9.50;47.96;99234.00;6255886;27;96431;-63
2023/04/28 02:12:56;;;;;;;;;32.75;30.75;;;;;9.52;47.48;99234.66;6262264;27;96210;-63
2023/04/28 02:16:01;;;;;;;;;32.00;30.00;;;;;9.56;48.42;99233.19;6264880;27;96654;-63
2023/04/28 02:19:04;;;;;;;;;31.20;28.20;;;;;9.58;48.31;99241.88;6264363;27;96443;-63
2023/04/28 02:22:08;;;;;;;;;31.40;29.60;;;;;9.57;48.11;99237.53;6263776;27;96157;-63
2023/04/28 02:25:13;;;;;;;;;32.60;30.00;;;;;9.52;48.08;99228.44;6265183;27;96943;-63
2023/04/28 02:28:16;;;;;;;;;26.80;26.00;;;;;9.53;48.28;99238.97;6244012;27;97358;-63
2023/04/28 02:31:19;;;;;;;;;35.00;30.00;;;;;9.52;48.38;99233.81;6235656;27;98491;-63
2023/04/28 02:34:23;;;;;;;;;33.00;30.40;;;;;9.56;48.02;99238.56;6248556;27;96523;-62
2023/04/28 02:37:26;;;;;;;;;35.00;31.67;;;;;9.57;48.24;99244.78;6270390;27;96298;-63
2023/04/28 02:40:31;;;;;;;;;28.75;28.00;;;;;9.58;47.69;99244.56;6290265;27;96230;-63
2023/04/28 02:43:35;;;;;;;;;30.00;27.40;;;;;9.57;47.27;99232.16;6286304;27;96475;-63
2023/04/28 02:46:39;;;;;;;;;28.00;26.20;;;;;9.68;47.12;99236.06;6262916;27;96303;-62
2023/04/28 02:49:42;;;;;;;;;32.00;30.00;;;;;9.70;47.40;99239.41;6261946;27;98724;-62
2023/04/28 02:52:45;;;;;;;;;36.00;31.20;;;;;9.54;47.83;99226.34;6263360;27;96514;-62
2023/04/28 02:55:52;;;;;;;;;38.40;32.40;;;;;9.36;48.50;99235.03;6264936;27;97550;-62
2023/04/28 02:58:56;;;;;;;;;37.00;33.00;;;;;9.25;48.82;99238.31;6262897;27;96598;-62
2023/04/28 03:01:59;;;;;;;;;38.00;33.80;;;;;9.20;48.88;99240.78;6249352;27;96865;-62
2023/04/28 03:05:02;;;;;;;;;36.00;32.00;;;;;9.17;48.84;99240.38;6242270;27;96619;-63
2023/04/28 03:08:06;;;;;;;;;39.60;33.00;;;;;9.12;48.89;99243.69;6237568;27;96653;-62
2023/04/28 03:11:11;;;;;;;;;39.00;32.00;;;;;9.07;49.08;99241.59;6240891;27;96367;-62
2023/04/28 03:14:15;;;;;;;;;37.40;32.00;;;;;9.04;49.20;99231.25;6241410;27;97444;-62
2023/04/28 03:17:19;;;;;;;;;35.80;31.40;;;;;9.01;49.61;99236.19;6251896;27;96235;-63
2023/04/28 03:20:23;;;;;;;;;34.40;30.40;;;;;8.99;49.02;99236.41;6250675;27;97555;-63
2023/04/28 03:23:26;;;;;;;;;36.60;32.60;;;;;9.01;48.90;99242.41;6249808;27;97456;-63
2023/04/28 03:26:32;;;;;;;;;34.40;32.00;;;;;9.00;48.93;99238.06;6249002;27;96278;-62
2023/04/28 03:29:36;;;;;;;;;35.00;32.00;;;;;8.99;48.99;99249.84;6260710;27;97340;-62
2023/04/28 03:32:39;;;;;;;;;40.20;33.40;;;;;9.00;49.03;99243.44;6251268;27;96216;-62
2023/04/28 03:35:43;;;;;;;;;36.25;32.00;;;;;8.98;49.17;99240.16;6260567;27;96856;-62
2023/04/28 03:38:47;;;;;;;;;38.40;33.00;;;;;8.89;49.28;99237.84;6263452;27;96330;-62
2023/04/28 03:41:51;;;;;;;;;42.80;34.80;;;;;8.84;49.36;99248.38;6242622;27;98577;-62
2023/04/28 03:45:27;;;;;;;;;36.50;33.00;;;;;8.83;49.24;99246.72;6238740;27;96984;-62
2023/04/28 03:48:30;;;;;;;;;34.00;31.00;;;;;8.82;49.35;99250.41;6251249;27;96397;-63
2023/04/28 03:51:34;;;;;;;;;42.40;34.60;;;;;8.81;49.36;99252.28;6245616;27;96442;-62
2023/04/28 03:54:37;;;;;;;;;36.60;32.00;;;;;8.82;49.17;99243.19;6256680;27;96746;-62
2023/04/28 03:57:42;;;;;;;;;31.00;29.75;;;;;8.91;49.06;99241.97;6238045;27;96936;-62
2023/04/28 04:00:46;;;;;;;;;34.00;31.00;;;;;8.99;49.23;99244.47;6248090;27;96847;-63
2023/04/28 04:03:49;;;;;;;;;35.40;30.20;;;;;9.01;48.95;99246.97;6235734;27;99569;-63
2023/04/28 04:06:53;;;;;;;;;35.40;32.00;;;;;8.96;49.19;99247.56;6241736;27;96921;-63
2023/04/28 04:09:57;;;;;;;;;35.00;30.60;;;;;8.90;49.41;99248.38;6256848;27;96660;-63
2023/04/28 04:13:02;;;;;;;;;35.75;31.75;;;;;8.90;49.56;99250.22;6233904;27;98568;-63
2023/04/28 04:16:06;;;;;;;;;35.00;32.00;;;;;8.93;49.68;99248.00;6233844;27;98356;-63
2023/04/28 04:19:10;;;;;;;;;42.50;33.00;;;;;8.97;49.86;99243.84;6249024;27;96341;-63
2023/04/28 04:22:18;;;;;;;;;31.00;30.00;;;;;8.94;49.83;99227.31;6237461;27;96466;-63
2023/04/28 04:25:23;;;;;;;;;39.00;33.80;;;;;9.14;49.47;99249.66;6255014;27;96245;-63
2023/04/28 04:28:28;;;;;;;;;39.40;32.00;;;;;9.22;49.28;99240.59;6253618;27;96424;-63
2023/04/28 04:31:32;;;;;;;;;36.00;31.80;;;;;9.32;49.27;99241.03;6252117;27;96321;-63
2023/04/28 04:34:35;;;;;;;;;36.00;33.00;;;;;9.45;49.45;99241.88;6243019;27;96493;-63
2023/04/28 04:37:39;;;;;;;;;36.50;33.00;;;;;9.62;49.06;99241.47;6267735;27;96572;-63
2023/04/28 04:40:42;;;;;;;;;34.00;31.50;;;;;9.77;48.82;99237.53;6261145;27;96266;-62
2023/04/28 04:43:48;;;;;;;;;37.00;32.00;;;;;9.93;48.60;99234.41;6258643;27;97075;-62
2023/04/28 04:46:51;;;;;;;;;35.80;30.40;;;;;10.13;48.33;99234.38;6255475;27;96994;-63
2023/04/28 04:49:56;;;;;;;;;35.00;31.00;;;;;10.34;47.62;99234.16;6234461;27;97366;-63
2023/04/28 04:52:59;;;;;;;;;30.75;29.75;;;;;10.54;47.02;99228.69;6252699;27;96585;-63
2023/04/28 04:56:03;;;;;;;;;35.00;31.00;;;;;10.74;46.51;99229.44;6238915;27;97152;-63
2023/04/28 04:59:09;;;;;;;;;29.75;28.00;;;;;11.00;45.76;99230.34;6245265;27;96720;-62
2023/04/28 05:02:33;;;;;;;;;28.60;27.00;;;;;11.29;44.61;99229.75;6251490;27;96764;-62
2023/04/28 05:05:38;;;;;;;;;25.40;23.40;;;;;11.50;43.84;99224.00;6255581;27;96723;-62
2023/04/28 05:08:55;;;;;;;;;25.40;24.00;;;;;11.72;43.09;99224.47;6240551;27;96764;-62
2023/04/28 05:11:59;;;;;;;;;27.60;26.00;;;;;11.89;41.29;99232.84;6263501;27;96269;-62
2023/04/28 05:15:04;;;;;;;;;23.00;22.00;;;;;12.08;41.15;99229.13;6259750;27;96899;-63
2023/04/28 05:18:10;;;;;;;;;26.20;25.80;;;;;12.32;40.87;99230.94;6260639;27;96546;-62
2023/04/28 05:21:13;;;;;;;;;23.75;21.00;;;;;12.52;40.13;99230.72;6240263;27;98535;-63
2023/04/28 05:24:17;;;;;;;;;24.40;23.60;;;;;12.74;39.85;99233.81;6236852;27;96257;-63
2023/04/28 05:27:20;;;;;;;;;23.25;23.25;;;;;12.92;39.61;99233.78;6235021;28;96862;-63
2023/04/28 05:30:25;;;;;;;;;23.60;21.00;;;;;13.13;39.42;99233.31;6234309;28;99023;-63
2023/04/28 05:33:28;;;;;;;;;20.00;19.80;;;;;13.33;38.54;99242.00;6251865;27;96381;-63
2023/04/28 05:36:33;;;;;;;;;22.00;20.00;;;;;13.55;38.11;99236.84;6257291;27;96473;-63
2023/04/28 05:39:36;;;;;;;;;21.00;19.00;;;;;13.76;37.62;99232.78;6248763;27;96591;-63
2023/04/28 05:42:41;;;;;;;;;21.33;19.33;;;;;13.98;36.97;99233.84;6234964;28;96405;-63
2023/04/28 05:45:46;;;;;;;;;19.60;19.00;;;;;14.06;35.28;99224.53;6239094;27;96890;-63
2023/04/28 05:48:49;;;;;;;;;22.40;22.00;;;;;14.17;35.35;99231.84;6271390;27;97627;-63
2023/04/28 05:51:53;;;;;;;;;19.00;17.60;;;;;14.29;34.65;99235.38;6252136;27;96729;-63
2023/04/28 05:54:56;;;;;;;;;16.00;16.00;;;;;14.48;34.62;99230.66;6246861;27;96977;-63
2023/04/28 05:58:00;;;;;;;;;18.20;17.20;;;;;14.59;34.55;99232.53;6244973;27;96315;-62
2023/04/28 06:01:04;;;;;;;;;18.00;16.00;;;;;14.73;34.67;99231.19;6242670;27;96665;-63
2023/04/28 06:04:08;;;;;;;;;17.80;15.80;;;;;14.93;34.72;99220.75;6242618;27;96933;-63
2023/04/28 06:07:12;;;;;;;;;18.80;18.40;;;;;15.23;35.30;99231.38;6261006;27;96547;-61
2023/04/28 06:10:15;;;;;;;;;13.00;13.00;;;;;15.59;35.29;99236.41;6244044;27;96742;-61
2023/04/28 06:13:19;;;;;;;;;14.60;13.60;;;;;15.92;34.05;99240.22;6256617;27;97139;-61
2023/04/28 06:16:23;;;;;;;;;16.25;15.25;;;;;16.23;33.53;99227.88;6248837;27;96677;-61
2023/04/28 06:19:27;;;;;;;;;16.00;13.60;;;;;16.51;32.10;99240.53;6240078;27;99052;-61
2023/04/28 06:22:31;;;;;;;;;18.20;16.00;;;;;16.78;32.85;99241.47;6249555;27;96912;-61
2023/04/28 06:25:35;;;;;;;;;15.60;14.60;;;;;17.02;31.64;99236.56;6250826;27;96831;-61
2023/04/28 06:28:38;;;;;;;;;17.00;16.00;;;;;17.26;31.33;99238.75;6238516;28;96336;-62
2023/04/28 06:31:44;;;;;;;;;17.00;17.00;;;;;17.38;30.25;99235.91;6236618;28;97595;-61
2023/04/28 06:34:48;;;;;;;;;17.00;15.00;;;;;17.59;30.78;99235.03;6222075;28;97719;-61
2023/04/28 06:37:52;;;;;;;;;16.40;14.40;;;;;17.87;30.93;99231.19;6238729;28;96332;-61
2023/04/28 06:40:56;;;;;;;;;13.00;11.25;;;;;17.98;29.06;99210.28;6238630;28;96591;-61
2023/04/28 06:43:59;;;;;;;;;15.00;14.00;;;;;18.31;28.91;99241.88;6239058;28;96295;-63
2023/04/28 06:47:06;;;;;;;;;12.60;11.00;;;;;18.36;27.14;99223.63;6238710;28;96342;-63
2023/04/28 06:50:12;;;;;;;;;12.40;11.00;;;;;18.52;27.34;99238.19;6238364;28;97136;-63
2023/04/28 06:53:15;;;;;;;;;14.00;13.00;;;;;18.51;27.04;99229.19;6238397;28;96622;-64
2023/04/28 06:56:19;;;;;;;;;13.40;13.40;;;;;18.39;25.96;99233.19;6238377;28;96225;-64
2023/04/28 06:59:23;;;;;;;;;12.75;12.75;;;;;18.54;26.58;99220.47;6238334;28;96393;-64
2023/04/28 07:02:27;;;;;;;;;13.00;12.80;;;;;18.48;26.11;99220.66;6238925;28;96682;-64
2023/04/28 07:05:33;;;;;;;;;10.00;10.00;;;;;18.53;26.44;99216.09;6239401;28;97612;-64
2023/04/28 07:08:36;;;;;;;;;11.00;10.50;;;;;18.79;25.67;99224.41;6239260;27;96782;-63
2023/04/28 07:11:40;;;;;;;;;11.20;10.20;;;;;19.03;26.51;99215.50;6236979;28;96543;-64
2023/04/28 07:14:43;;;;;;;;;13.80;12.00;;;;;19.41;27.04;99214.19;6237504;28;96710;-64
2023/04/28 07:17:48;;;;;;;;;14.00;12.00;;;;;19.80;26.96;99217.28;6239364;28;96873;-64
2023/04/28 07:20:51;;;;;;;;;12.00;11.80;;;;;20.14;25.73;99209.31;6238427;27;97471;-64
2023/04/28 07:23:55;;;;;;;;;11.50;11.00;;;;;20.50;25.44;99201.88;6237642;28;96257;-63
2023/04/28 07:27:00;;;;;;;;;9.00;9.00;;;;;20.69;23.20;99202.06;6238775;27;96390;-63
2023/04/28 07:30:04;;;;;;;;;7.00;7.00;;;;;20.80;22.75;99198.19;6237170;28;97639;-63
2023/04/28 07:33:28;;;;;;;;;10.00;10.00;;;;;20.24;21.78;99201.06;6238346;28;96327;-63
2023/04/28 07:36:32;;;;;;;;;9.00;9.00;;;;;20.45;21.94;99193.66;6239283;27;96300;-63
2023/04/28 07:39:35;;;;;;;;;6.00;6.00;;;;;20.77;21.59;99189.72;6237059;28;96784;-63
2023/04/28 07:42:38;;;;;;;;;9.00;8.67;;;;;20.85;20.94;99189.97;6238995;27;96890;-63
2023/04/28 07:45:44;;;;;;;;;7.00;6.80;;;;;20.47;20.21;99187.91;6238871;28;96235;-63
2023/04/28 07:48:49;;;;;;;;;7.40;6.40;;;;;20.40;21.69;99190.13;6239190;28;96241;-64
2023/04/28 07:51:54;;;;;;;;;8.40;8.40;;;;;19.85;21.39;99178.13;6237863;28;96195;-63
2023/04/28 07:54:58;;;;;;;;;9.00;9.00;;;;;19.99;21.09;99181.94;6238486;27;96556;-63
2023/04/28 07:58:01;;;;;;;;;11.00;10.60;;;;;19.86;21.28;99182.53;6238117;27;96244;-63
2023/04/28 08:01:05;;;;;;;;;12.00;11.00;;;;;19.73;20.60;99189.38;6238005;28;97514;-63
2023/04/28 08:04:10;;;;;;;;;9.60;8.00;;;;;20.07;21.91;99183.31;6237021;28;96393;-63
2023/04/28 08:07:14;;;;;;;;;10.00;10.00;;;;;20.48;22.28;99182.16;6219604;28;98399;-61
2023/04/28 08:10:17;;;;;;;;;6.25;6.25;;;;;20.35;21.79;99182.75;6219751;28;98466;-61
2023/04/28 08:13:21;;;;;;;;;11.00;10.00;;;;;20.04;21.13;99156.50;6237814;28;96375;-61
2023/04/28 08:16:24;;;;;;;;;13.00;12.60;;;;;20.61;22.46;99176.09;6238125;27;96214;-63
2023/04/28 08:19:29;;;;;;;;;10.40;10.00;;;;;20.89;22.34;99177.31;6237704;27;96826;-63
2023/04/28 08:22:32;;;;;;;;;10.60;10.60;;;;;21.12;21.05;99184.03;6237761;27;96775;-63
2023/04/28 08:25:35;;;;;;;;;10.00;10.00;;;;;21.36;20.61;99174.03;6237309;28;96368;-63
2023/04/28 08:28:39;;;;;;;;;8.00;8.00;;;;;21.62;19.67;99171.94;6218004;28;97168;-63
2023/04/28 08:31:42;;;;;;;;;7.00;7.00;;;;;21.63;19.52;99168.09;6234546;27;96527;-63
2023/04/28 08:34:47;;;;;;;;;9.00;7.00;;;;;21.70;19.64;99171.31;6237020;27;97439;-63
2023/04/28 08:37:52;;;;;;;;;7.00;7.00;;;;;21.64;20.67;99163.44;6219219;28;96603;-63
2023/04/28 08:40:55;;;;;;;;;5.33;5.33;;;;;21.81;19.64;99163.81;6236325;28;96270;-63
2023/04/28 08:43:59;;;;;;;;;9.20;8.20;;;;;21.90;20.09;99165.66;6252738;27;96749;-63
2023/04/28 08:47:04;;;;;;;;;8.00;7.00;;;;;22.15;20.00;99161.03;6288018;27;96263;-63
2023/04/28 08:50:11;;;;;;;;;11.00;10.50;;;;;22.39;19.24;99161.88;6271480;27;96243;-63
2023/04/28 08:53:17;;;;;;;;;9.00;8.00;;;;;22.43;19.54;99161.00;6262780;27;96311;-63
2023/04/28 08:56:24;;;;;;;;;8.00;8.00;;;;;22.81;19.37;99166.63;6264289;27;96392;-63
2023/04/28 08:59:28;;;;;;;;;9.00;7.00;;;;;23.37;19.40;99154.81;6261342;27;96369;-63
2023/04/28 09:02:31;;;;;;;;;9.00;8.00;;;;;23.81;19.05;99151.66;6262236;27;96555;-63
2023/04/28 09:05:36;;;;;;;;;9.00;9.00;;;;;24.22;19.29;99149.81;6262970;27;96567;-63
2023/04/28 09:08:40;;;;;;;;;12.00;11.00;;;;;24.59;18.77;99135.03;6262561;27;96345;-63
2023/04/28 09:11:51;;;;;;;;;9.00;9.00;;;;;24.28;17.69;99137.59;6261393;27;96367;-63
2023/04/28 09:14:58;;;;;;;;;9.50;9.00;;;;;23.56;17.91;99145.44;6262621;27;97504;-63
2023/04/28 09:18:02;;;;;;;;;9.00;9.00;;;;;23.31;18.56;99135.63;6261926;27;96220;-63
2023/04/28 09:21:08;;;;;;;;;9.40;9.40;;;;;23.43;19.16;99137.94;6261954;27;96239;-63
2023/04/28 09:24:25;;;;;;;;;8.40;8.00;;;;;23.92;20.46;99123.63;6262360;27;96239;-63
2023/04/28 09:27:29;;;;;;;;;8.00;7.80;;;;;24.36;18.61;99119.53;6243578;27;96546;-64
2023/04/28 09:30:39;;;;;;;;;10.00;9.00;;;;;24.78;19.26;99126.63;6261588;27;96764;-64
2023/04/28 09:33:57;;;;;;;;;9.40;9.00;;;;;25.24;18.97;99123.69;6261896;27;97574;-63
2023/04/28 09:37:15;;;;;;;;;8.80;8.00;;;;;25.62;18.75;99113.09;6287907;27;96368;-63
2023/04/28 09:40:19;;;;;;;;;7.00;7.00;;;;;25.92;18.82;99109.56;6253052;27;96280;-63
2023/04/28 09:43:31;;;;;;;;;7.00;7.00;;;;;26.29;17.67;99097.25;6234466;27;99430;-64
2023/04/28 09:46:34;;;;;;;;;11.00;9.40;;;;;26.64;17.73;99101.72;6239839;28;97317;-64
2023/04/28 09:49:53;;;;;;;;;10.00;9.00;;;;;26.71;16.25;99092.97;6240973;27;96427;-64
2023/04/28 09:52:59;;;;;;;;;8.60;8.40;;;;;26.79;17.38;99094.91;6256563;27;96227;-64
2023/04/28 09:56:05;;;;;;;;;8.00;8.00;;;;;26.44;16.40;99087.72;6241753;27;96488;-64
2023/04/28 09:59:08;;;;;;;;;11.00;9.00;;;;;25.90;17.34;99086.97;6240856;27;96948;-63
2023/04/28 10:02:13;;;;;;;;;11.00;10.00;;;;;25.99;17.93;99079.53;6240381;28;96382;-64
2023/04/28 10:05:38;;;;;;;;;8.20;7.60;;;;;26.15;16.72;99072.44;6240767;27;96462;-64
2023/04/28 10:08:46;;;;;;;;;9.50;9.50;;;;;26.05;16.84;99066.38;6240692;27;96784;-64
2023/04/28 10:11:50;;;;;;;;;9.60;9.40;;;;;25.94;16.89;99078.88;6240801;27;96277;-63
2023/04/28 10:14:54;;;;;;;;;9.00;8.25;;;;;26.06;17.05;99077.13;6240421;28;96536;-64
2023/04/28 10:17:58;;;;;;;;;9.20;8.80;;;;;26.08;16.81;99071.28;6240513;27;96482;-63
2023/04/28 10:21:03;;;;;;;;;9.00;9.00;;;;;26.20;16.58;99047.44;6256284;27;96308;-63
2023/04/28 10:24:18;;;;;;;;;9.00;8.00;;;;;26.63;16.58;99071.66;6256286;27;96619;-64
2023/04/28 10:27:27;;;;;;;;;11.40;10.60;;;;;26.47;16.10;99060.22;6239334;27;97046;-63
2023/04/28 10:30:30;;;;;;;;;10.20;10.00;;;;;25.66;16.47;99064.41;6239402;27;96374;-63
2023/04/28 10:33:34;;;;;;;;;10.80;10.00;;;;;25.60;17.01;99057.41;6254418;27;96306;-63
2023/04/28 10:36:51;;;;;;;;;10.00;10.00;;;;;25.71;16.55;99056.81;6239971;27;96246;-63
2023/04/28 10:40:33;;;;;;;;;9.00;9.00;;;;;26.24;18.36;99042.91;6239966;27;96298;-63
2023/04/28 10:43:38;;;;;;;;;9.40;9.00;;;;;26.86;18.62;99031.69;6244533;27;96227;-61
2023/04/28 10:47:00;;;;;;;;;9.00;9.00;;;;;27.38;17.88;99040.75;6261640;27;96320;-63
2023/04/28 10:50:08;;;;;;;;;9.00;9.00;;;;;27.70;16.35;99033.06;6245208;27;96567;-64
2023/04/28 10:53:11;;;;;;;;;11.25;10.00;;;;;27.91;16.76;99025.63;6247466;27;97141;-64
2023/04/28 10:56:18;;;;;;;;;8.00;6.60;;;;;27.68;15.11;99022.28;6246636;27;96290;-64
2023/04/28 10:59:28;;;;;;;;;9.00;8.00;;;;;27.19;15.66;99018.13;6239096;27;96534;-63
2023/04/28 11:02:41;;;;;;;;;8.00;8.00;;;;;26.88;15.50;99014.75;6245718;27;96421;-63
2023/04/28 11:06:20;;;;;;;;;8.80;8.00;;;;;26.65;16.37;99003.00;6261745;27;96309;-63
2023/04/28 11:09:49;;;;;;;;;8.00;8.00;;;;;26.82;16.37;99003.00;6244078;27;96772;-63
2023/04/28 11:13:32;;;;;;;;;9.00;9.00;;;;;26.38;16.01;99003.28;6239560;27;96616;-61
2023/04/28 11:16:49;;;;;;;;;9.00;8.80;;;;;26.05;15.90;98994.53;6261519;27;96740;-60
2023/04/28 11:19:56;;;;;;;;;9.00;9.00;;;;;26.17;16.65;99003.88;6252232;27;96277;-60
2023/04/28 11:22:59;;;;;;;;;8.20;8.00;;;;;26.43;17.01;98997.59;6250361;27;96265;-60
2023/04/28 11:26:03;;;;;;;;;9.60;9.00;;;;;26.70;17.21;98989.00;6254630;27;96634;-60
2023/04/28 11:29:08;;;;;;;;;11.33;10.00;;;;;26.76;15.40;98993.25;6235089;27;96756;-60
2023/04/28 11:32:12;;;;;;;;;8.00;8.00;;;;;26.97;16.79;98990.66;6263347;27;96581;-61
2023/04/28 11:35:15;;;;;;;;;8.80;8.00;;;;;27.15;16.60;98987.53;6245241;27;98623;-61
2023/04/28 11:38:19;;;;;;;;;8.40;7.60;;;;;27.33;16.60;98990.25;6269361;27;98494;-60
2023/04/28 11:41:22;;;;;;;;;7.40;7.40;;;;;27.51;16.34;98984.38;6266402;27;96938;-60
2023/04/28 11:44:29;;;;;;;;;6.00;6.00;;;;;27.68;16.22;98977.97;6263641;27;96423;-60
2023/04/28 11:47:34;;;;;;;;;8.25;6.00;;;;;27.67;15.53;98975.53;6249958;27;97505;-60
2023/04/28 11:50:38;;;;;;;;;6.60;6.20;;;;;27.69;16.69;98962.97;6263412;27;96415;-60
2023/04/28 11:53:42;;;;;;;;;8.00;7.00;;;;;27.33;15.44;98968.13;6263435;27;96305;-61
2023/04/28 11:56:46;;;;;;;;;10.00;9.00;;;;;26.86;15.74;98967.19;6263361;27;96240;-61
2023/04/28 11:59:51;;;;;;;;;8.00;8.00;;;;;25.94;16.43;98965.59;6261815;27;97103;-61
2023/04/28 12:02:54;;;;;;;;;12.00;10.40;;;;;25.90;16.44;98943.34;6262627;27;96290;-61
2023/04/28 12:05:58;;;;;;;;;8.00;7.00;;;;;25.92;15.91;98946.59;6263703;27;96313;-61
2023/04/28 12:09:04;;;;;;;;;6.75;6.25;;;;;26.05;16.40;98945.63;6253424;27;98370;-61
2023/04/28 12:12:09;;;;;;;;;8.00;8.00;;;;;26.23;16.88;98941.00;6270729;27;96531;-61
2023/04/28 12:15:14;;;;;;;;;8.00;8.00;;;;;26.27;17.32;98934.50;6259955;27;96420;-61
2023/04/28 12:18:18;;;;;;;;;9.00;8.00;;;;;26.38;16.55;98929.47;6253182;27;96626;-61
2023/04/28 12:21:22;;;;;;;;;6.00;6.00;;;;;26.55;16.48;98920.34;6258700;27;96276;-61
2023/04/28 12:24:25;;;;;;;;;7.80;7.80;;;;;26.72;16.49;98912.06;6263005;27;96488;-61
2023/04/28 12:27:30;;;;;;;;;8.00;7.40;;;;;26.91;17.21;98914.50;6262056;27;96434;-61
2023/04/28 12:30:37;;;;;;;;;9.00;9.00;;;;;27.18;17.49;98905.78;6261952;27;96164;-61
2023/04/28 12:33:41;;;;;;;;;7.00;6.40;;;;;27.31;16.62;98903.97;6261722;27;96814;-61
2023/04/28 12:36:45;;;;;;;;;7.00;6.20;;;;;27.33;15.73;98899.72;6251172;27;96311;-61
2023/04/28 12:39:49;;;;;;;;;8.20;7.20;;;;;27.22;15.62;98889.34;6252672;27;96571;-61
2023/04/28 12:42:53;;;;;;;;;10.60;10.60;;;;;26.97;16.18;98888.28;6252466;27;96355;-61
2023/04/28 12:45:59;;;;;;;;;10.00;8.33;;;;;26.41;16.26;98867.19;6258494;27;96597;-61
2023/04/28 12:49:02;;;;;;;;;6.50;6.50;;;;;26.44;16.53;98881.16;6262787;27;96279;-61
2023/04/28 12:52:06;;;;;;;;;8.00;8.00;;;;;26.17;16.48;98864.88;6248891;27;96396;-61
2023/04/28 12:55:10;;;;;;;;;11.40;10.60;;;;;25.91;16.29;98866.78;6250760;27;96777;-61
2023/04/28 12:58:14;;;;;;;;;10.00;10.00;;;;;25.73;16.32;98875.06;6260783;27;96826;-61
2023/04/28 13:01:18;;;;;;;;;12.00;10.80;;;;;25.62;16.75;98876.47;6243495;27;98648;-61
2023/04/28 13:04:22;;;;;;;;;11.00;11.00;;;;;25.38;16.95;98867.75;6259967;27;98543;-61
2023/04/28 13:07:25;;;;;;;;;10.40;9.40;;;;;25.22;17.12;98861.03;6290485;27;96519;-61
2023/04/28 13:10:28;;;;;;;;;13.00;12.00;;;;;25.51;17.48;98855.78;6278999;27;96475;-61
2023/04/28 13:13:32;;;;;;;;;10.00;10.00;;;;;25.70;17.31;98859.13;6285035;27;96285;-60
2023/04/28 13:16:36;;;;;;;;;9.00;8.60;;;;;25.11;17.95;98859.72;6284036;27;96082;-58
2023/04/28 13:19:40;;;;;;;;;13.75;12.00;;;;;25.30;18.12;98846.47;6269895;27;96277;-56
2023/04/28 13:22:44;;;;;;;;;9.00;8.00;;;;;25.64;18.04;98852.13;6285842;27;96846;-57
2023/04/28 13:25:47;;;;;;;;;8.00;7.00;;;;;25.84;19.83;98856.25;6270342;27;96587;-57
2023/04/28 13:28:51;;;;;;;;;6.60;6.20;;;;;26.01;18.38;98845.19;6277770;27;96245;-57
2023/04/28 13:31:56;;;;;;;;;7.00;7.00;;;;;26.26;20.45;98838.09;6293383;27;98347;-57
2023/04/28 13:35:00;;;;;;;;;8.40;8.00;;;;;26.52;19.93;98830.59;6294644;27;96489;-57
2023/04/28 13:38:03;;;;;;;;;10.67;9.00;;;;;26.76;19.43;98818.97;6294798;27;96733;-58
2023/04/28 13:41:07;;;;;;;;;9.00;9.00;;;;;26.68;17.89;98822.59;6438493;22;99014;-61
2023/04/28 13:44:10;;;;;;;;;8.00;8.00;;;;;26.53;17.34;98818.41;6240249;27;98776;-59
2023/04/28 13:47:15;;;;;;;;;7.40;6.40;;;;;26.38;19.45;98821.66;6265913;27;97392;-59
2023/04/28 13:50:19;;;;;;;;;8.00;8.00;;;;;26.41;17.72;98807.19;6247427;27;96108;-59
2023/04/28 13:53:22;;;;;;;;;9.60;9.00;;;;;25.90;17.06;98808.00;6248485;27;96438;-60
2023/04/28 13:56:25;;;;;;;;;10.00;9.00;;;;;25.87;20.62;98806.69;6262356;27;96315;-60
2023/04/28 13:59:29;;;;;;;;;9.00;8.00;;;;;25.19;18.60;98796.28;6239727;27;96330;-60
2023/04/28 14:02:33;;;;;;;;;8.00;8.00;;;;;24.95;20.70;98799.44;6218584;28;96960;-60
2023/04/28 14:05:38;;;;;;;;;8.25;8.00;;;;;24.94;20.83;98788.72;6220280;28;96310;-60
2023/04/28 14:08:51;;;;;;;;;10.00;10.00;;;;;25.06;21.61;98785.38;6240775;27;96327;-59
2023/04/28 14:11:55;;;;;;;;;8.00;7.00;;;;;24.98;20.22;98785.00;6245344;28;96217;-59
2023/04/28 14:14:58;;;;;;;;;10.80;8.20;;;;;24.65;18.88;98777.34;6245249;28;96549;-59
2023/04/28 14:18:03;;;;;;;;;9.80;7.00;;;;;24.51;19.62;98777.44;6227399;28;97267;-59
2023/04/28 14:21:07;;;;;;;;;8.20;8.20;;;;;24.44;19.97;98774.31;6245294;28;96582;-59
2023/04/28 14:24:10;;;;;;;;;9.40;8.40;;;;;24.54;21.64;98769.34;6228275;27;96857;-59